createdAt,value
2022-11-21T00:01:57.496Z,68.90
2022-11-21T00:04:29.513Z,68.83
2022-11-21T00:07:01.323Z,68.78
2022-11-21T00:09:34.078Z,68.71
2022-11-21T00:12:06.121Z,68.76
2022-11-21T00:14:37.934Z,68.67
2022-11-21T00:17:09.562Z,68.76
2022-11-21T00:19:41.194Z,68.77
2022-11-21T00:22:12.858Z,68.87
2022-11-21T00:24:44.771Z,68.91
2022-11-21T00:27:16.495Z,68.90
2022-11-21T00:29:48.147Z,68.82
2022-11-21T00:32:19.793Z,68.78
2022-11-21T00:34:51.744Z,68.90
2022-11-21T00:37:23.580Z,68.77
2022-11-21T00:39:55.208Z,68.76
2022-11-21T00:42:26.944Z,68.76
2022-11-21T00:44:58.565Z,68.86
2022-11-21T00:47:30.321Z,69.03
2022-11-21T00:50:02.018Z,69.12
2022-11-21T00:52:33.709Z,69.08
2022-11-21T00:55:05.471Z,69.12
2022-11-21T00:57:37.193Z,69.13
2022-11-21T01:00:12.639Z,69.26
2022-11-21T01:02:44.348Z,69.20
2022-11-21T01:05:16.051Z,69.25
2022-11-21T01:07:49.069Z,69.42
2022-11-21T01:10:20.948Z,69.21
2022-11-21T01:12:52.605Z,69.42
2022-11-21T01:15:24.290Z,69.31
2022-11-21T01:17:55.920Z,69.27
2022-11-21T01:20:27.689Z,69.21
2022-11-21T01:22:59.325Z,69.22
2022-11-21T01:25:30.999Z,69.42
2022-11-21T01:28:02.646Z,69.22
2022-11-21T01:30:34.469Z,69.36
2022-11-21T01:33:06.140Z,69.23
2022-11-21T01:35:37.809Z,69.24
2022-11-21T01:38:09.427Z,69.22
2022-11-21T01:40:42.243Z,69.32
2022-11-21T01:43:15.474Z,69.27
2022-11-21T01:46:02.014Z,69.32
2022-11-21T01:48:38.937Z,69.39
2022-11-21T01:51:15.758Z,69.41
2022-11-21T01:53:52.229Z,69.22
2022-11-21T01:56:25.234Z,69.10
2022-11-21T01:59:00.561Z,69.14
2022-11-21T02:01:35.617Z,69.42
2022-11-21T02:04:08.871Z,69.37
2022-11-21T02:06:40.700Z,69.49
2022-11-21T02:09:12.698Z,69.46
2022-11-21T02:11:49.161Z,69.47
2022-11-21T02:14:21.047Z,69.49
2022-11-21T02:16:55.909Z,69.40
2022-11-21T02:19:35.490Z,69.29
2022-11-21T02:22:13.631Z,69.31
2022-11-21T02:24:50.408Z,69.14
2022-11-21T02:27:22.394Z,69.29
2022-11-21T02:29:54.030Z,69.14
2022-11-21T02:32:32.620Z,69.34
2022-11-21T02:35:04.571Z,69.22
2022-11-21T02:37:38.408Z,69.18
2022-11-21T02:40:24.049Z,69.11
2022-11-21T02:43:03.623Z,69.23
2022-11-21T02:45:39.517Z,69.30
2022-11-21T02:48:11.784Z,69.30
2022-11-21T02:50:45.068Z,69.30
2022-11-21T02:53:19.047Z,69.20
2022-11-21T02:55:50.714Z,69.30
2022-11-21T02:58:22.303Z,69.30
2022-11-21T03:00:55.399Z,69.11
2022-11-21T03:03:27.118Z,69.20
2022-11-21T03:05:59.045Z,69.00
2022-11-21T03:08:30.767Z,69.24
2022-11-21T03:11:02.539Z,69.21
2022-11-21T03:13:34.077Z,69.24
2022-11-21T03:16:05.884Z,69.29
2022-11-21T03:18:37.496Z,69.23
2022-11-21T03:21:09.247Z,69.19
2022-11-21T03:23:40.860Z,69.12
2022-11-21T03:26:12.650Z,69.11
2022-11-21T03:28:45.227Z,69.11
2022-11-21T03:31:17.062Z,69.13
2022-11-21T03:33:48.600Z,69.00
2022-11-21T03:36:20.249Z,69.28
2022-11-21T03:38:51.987Z,69.17
2022-11-21T03:41:32.838Z,69.24
2022-11-21T03:44:06.960Z,69.27
2022-11-21T03:46:41.431Z,69.18
2022-11-21T03:49:14.502Z,69.30
2022-11-21T03:51:46.482Z,69.12
2022-11-21T03:54:18.090Z,68.96
2022-11-21T03:56:49.722Z,68.99
2022-11-21T03:59:21.324Z,69.08
2022-11-21T04:01:53.070Z,68.91
2022-11-21T04:04:24.817Z,69.05
2022-11-21T04:06:56.869Z,68.96
2022-11-21T04:09:28.505Z,69.07
2022-11-21T04:12:03.710Z,69.18
2022-11-21T04:14:38.198Z,69.10
2022-11-21T04:17:09.889Z,69.07
2022-11-21T04:19:41.447Z,69.13
2022-11-21T04:22:13.081Z,69.28
2022-11-21T04:24:44.781Z,69.18
2022-11-21T04:27:16.607Z,69.11
2022-11-21T04:29:48.160Z,69.02
2022-11-21T04:32:19.809Z,69.25
2022-11-21T04:34:51.359Z,69.37
2022-11-21T04:37:23.056Z,69.53
2022-11-21T04:39:54.933Z,69.60
2022-11-21T04:42:26.744Z,69.60
2022-11-21T04:44:58.312Z,69.58
2022-11-21T04:47:29.990Z,69.28
2022-11-21T04:50:01.633Z,69.17
2022-11-21T04:52:33.662Z,69.19
2022-11-21T04:55:06.048Z,69.43
2022-11-21T04:57:38.242Z,69.33
2022-11-21T05:00:14.329Z,69.20
2022-11-21T05:02:46.491Z,69.38
2022-11-21T05:05:18.394Z,69.48
2022-11-21T05:07:50.005Z,69.56
2022-11-21T05:10:22.605Z,69.63
2022-11-21T05:13:18.274Z,69.63
2022-11-21T05:15:51.732Z,69.65
2022-11-21T05:18:23.430Z,69.67
2022-11-21T05:20:55.050Z,69.86
2022-11-21T05:23:26.741Z,69.91
2022-11-21T05:25:58.363Z,69.95
2022-11-21T05:28:30.144Z,69.71
2022-11-21T05:31:01.737Z,69.73
2022-11-21T05:33:33.419Z,70.07
2022-11-21T05:36:05.288Z,70.05
2022-11-21T05:38:37.043Z,70.45
2022-11-21T05:41:08.816Z,70.60
2022-11-21T05:43:50.213Z,70.90
2022-11-21T05:46:24.134Z,70.97
2022-11-21T05:48:57.114Z,71.26
2022-11-21T05:51:28.872Z,71.41
2022-11-21T05:54:01.891Z,71.92
2022-11-21T05:56:34.113Z,72.20
2022-11-21T05:59:05.954Z,72.28
2022-11-21T06:01:54.958Z,72.19
2022-11-21T06:04:26.983Z,72.26
2022-11-21T06:06:59.963Z,72.65
2022-11-21T06:09:31.734Z,73.26
2022-11-21T06:12:03.343Z,73.27
2022-11-21T06:14:34.967Z,73.29
2022-11-21T06:17:06.972Z,73.23
2022-11-21T06:19:38.551Z,72.90
2022-11-21T06:22:10.216Z,73.13
2022-11-21T06:24:41.986Z,73.26
2022-11-21T06:27:13.574Z,73.70
2022-11-21T06:29:45.256Z,73.55
2022-11-21T06:32:17.117Z,73.86
2022-11-21T06:34:49.041Z,73.78
2022-11-21T06:37:20.638Z,74.23
2022-11-21T06:39:52.224Z,73.94
2022-11-21T06:42:26.578Z,74.29
2022-11-21T06:44:58.210Z,74.00
2022-11-21T06:47:29.852Z,74.00
2022-11-21T06:50:01.723Z,73.90
2022-11-21T06:52:36.500Z,73.76
2022-11-21T06:55:10.987Z,74.24
2022-11-21T06:57:42.589Z,74.13
2022-11-21T07:00:17.808Z,73.79
2022-11-21T07:02:49.612Z,74.16
2022-11-21T07:05:21.510Z,73.70
2022-11-21T07:07:53.191Z,74.13
2022-11-21T07:10:24.951Z,74.04
2022-11-21T07:13:16.746Z,74.07
2022-11-21T07:15:50.099Z,74.08
2022-11-21T07:18:23.348Z,74.13
2022-11-21T07:20:58.498Z,74.15
2022-11-21T07:23:30.826Z,74.27
2022-11-21T07:26:04.277Z,74.04
2022-11-21T07:28:36.585Z,74.50
2022-11-21T07:31:13.188Z,74.25
2022-11-21T07:33:46.876Z,74.13
2022-11-21T07:36:18.643Z,74.28
2022-11-21T07:38:50.553Z,73.96
2022-11-21T07:41:22.291Z,74.53
2022-11-21T07:43:54.138Z,74.05
2022-11-21T07:46:25.819Z,74.29
2022-11-21T07:49:01.949Z,73.99
2022-11-21T07:51:35.810Z,73.85
2022-11-21T07:54:07.906Z,73.75
2022-11-21T07:56:39.553Z,73.91
2022-11-21T07:59:11.479Z,73.85
2022-11-21T08:01:45.745Z,73.71
2022-11-21T08:04:17.518Z,73.97
2022-11-21T08:06:49.186Z,73.87
2022-11-21T08:09:20.970Z,73.97
2022-11-21T08:11:52.644Z,74.05
2022-11-21T08:14:24.774Z,73.88
2022-11-21T08:16:56.469Z,73.93
2022-11-21T08:19:28.222Z,73.94
2022-11-21T08:22:00.127Z,73.99
2022-11-21T08:24:31.848Z,73.99
2022-11-21T08:27:03.474Z,74.24
2022-11-21T08:29:35.132Z,74.24
2022-11-21T08:32:07.067Z,74.24
2022-11-21T08:34:38.683Z,74.27
2022-11-21T08:37:10.327Z,74.09
2022-11-21T08:39:41.992Z,74.09
2022-11-21T08:42:14.019Z,73.98
2022-11-21T08:44:45.738Z,73.94
2022-11-21T08:47:17.612Z,73.83
2022-11-21T08:49:49.449Z,73.85
2022-11-21T08:52:21.094Z,73.64
2022-11-21T08:54:52.756Z,73.54
2022-11-21T08:57:24.465Z,73.34
2022-11-21T08:59:56.093Z,73.45
2022-11-21T09:02:27.924Z,73.47
2022-11-21T09:04:59.813Z,73.19
2022-11-21T09:07:31.826Z,73.04
2022-11-21T09:10:03.770Z,73.18
2022-11-21T09:12:35.696Z,73.22
2022-11-21T09:15:26.618Z,73.44
2022-11-21T09:18:08.213Z,73.49
2022-11-21T09:20:44.642Z,73.43
2022-11-21T09:23:17.999Z,73.57
2022-11-21T09:25:49.701Z,73.58
2022-11-21T09:28:21.557Z,73.48
2022-11-21T09:30:53.184Z,73.51
2022-11-21T09:33:24.901Z,73.63
2022-11-21T09:35:58.962Z,73.67
2022-11-21T09:38:31.317Z,73.68
2022-11-21T09:41:31.954Z,73.84
2022-11-21T09:44:15.413Z,73.92
2022-11-21T09:46:50.216Z,73.79
2022-11-21T09:49:23.481Z,74.04
2022-11-21T09:51:57.676Z,74.04
2022-11-21T09:54:33.573Z,74.03
2022-11-21T09:57:05.331Z,73.90
2022-11-21T09:59:39.013Z,73.83
2022-11-21T10:02:17.894Z,73.70
2022-11-21T10:04:50.653Z,73.76
2022-11-21T10:07:26.913Z,73.61
2022-11-21T10:10:13.501Z,73.54
2022-11-21T10:12:58.030Z,73.43
2022-11-21T10:15:45.277Z,73.65
2022-11-21T10:18:41.533Z,73.63
2022-11-21T10:21:23.749Z,73.86
2022-11-21T10:24:17.286Z,74.13
2022-11-21T10:26:54.462Z,74.06
2022-11-21T10:29:31.163Z,74.15
2022-11-21T10:32:09.529Z,74.29
2022-11-21T10:34:41.501Z,74.45
2022-11-21T10:37:22.627Z,74.56
2022-11-21T10:39:55.981Z,74.30
2022-11-21T10:42:36.253Z,74.62
2022-11-21T10:45:19.341Z,74.53
2022-11-21T10:47:52.813Z,74.36
2022-11-21T10:50:35.387Z,74.15
2022-11-21T10:53:31.533Z,74.00
2022-11-21T10:56:10.627Z,74.10
2022-11-21T10:58:48.363Z,74.03
2022-11-21T11:01:25.469Z,74.06
2022-11-21T11:04:33.213Z,74.08
2022-11-21T11:07:25.126Z,73.98
2022-11-21T11:10:27.551Z,73.92
2022-11-21T11:13:44.669Z,73.81
2022-11-21T11:16:18.602Z,74.11
2022-11-21T11:18:57.257Z,74.11
2022-11-21T11:21:30.978Z,74.22
2022-11-21T11:24:26.000Z,74.04
2022-11-21T11:27:02.760Z,74.06
2022-11-21T11:29:42.323Z,73.95
2022-11-21T11:32:21.535Z,73.92
2022-11-21T11:35:01.091Z,74.20
2022-11-21T11:37:41.068Z,73.98
2022-11-21T11:40:29.577Z,74.28
2022-11-21T11:43:31.794Z,74.43
2022-11-21T11:46:37.804Z,74.23
2022-11-21T11:49:20.849Z,74.14
2022-11-21T11:51:57.972Z,74.11
2022-11-21T11:54:36.032Z,73.93
2022-11-21T11:57:07.991Z,73.89
2022-11-21T11:59:46.944Z,74.03
2022-11-21T12:02:23.086Z,74.09
2022-11-21T12:04:58.375Z,74.18
2022-11-21T12:10:34.930Z,74.07
2022-11-21T12:13:12.680Z,74.08
2022-11-21T12:15:52.792Z,73.81
2022-11-21T12:18:32.946Z,73.62
2022-11-21T12:21:11.137Z,73.17
2022-11-21T12:23:47.528Z,73.02
2022-11-21T12:26:33.551Z,72.92
2022-11-21T12:29:22.870Z,73.03
2022-11-21T12:32:10.278Z,73.11
2022-11-21T12:34:55.273Z,73.44
2022-11-21T12:37:37.106Z,73.47
2022-11-21T12:40:23.364Z,73.40
2022-11-21T12:43:09.446Z,73.39
2022-11-21T12:45:48.242Z,73.27
2022-11-21T12:48:47.187Z,73.32
2022-11-21T12:51:52.658Z,73.17
2022-11-21T12:54:50.687Z,73.46
2022-11-21T12:57:28.188Z,73.66
2022-11-21T13:00:12.541Z,73.73
2022-11-21T13:03:05.092Z,73.64
2022-11-21T13:05:41.915Z,73.56
2022-11-21T13:08:24.194Z,73.37
2022-11-21T13:11:27.964Z,73.45
2022-11-21T13:14:11.013Z,73.35
2022-11-21T13:16:48.467Z,73.48
2022-11-21T13:19:25.922Z,73.44
2022-11-21T13:21:58.028Z,73.44
2022-11-21T13:24:59.731Z,72.85
2022-11-21T13:27:38.751Z,72.46
2022-11-21T13:30:25.801Z,72.55
2022-11-21T13:32:57.803Z,72.45
2022-11-21T13:35:57.934Z,72.61
2022-11-21T13:38:34.313Z,72.51
2022-11-21T13:41:25.114Z,72.50
2022-11-21T13:44:38.676Z,72.32
2022-11-21T13:47:32.792Z,72.41
2022-11-21T13:50:11.632Z,72.10
2022-11-21T13:52:50.679Z,71.93
2022-11-21T13:55:40.636Z,72.11
2022-11-21T13:58:27.455Z,72.27
2022-11-21T14:01:16.067Z,72.24
2022-11-21T14:04:04.592Z,72.64
2022-11-21T14:06:39.607Z,72.82
2022-11-21T14:09:23.087Z,72.63
2022-11-21T14:11:58.176Z,72.66
2022-11-21T14:14:40.913Z,72.85
2022-11-21T14:17:30.142Z,72.79
2022-11-21T14:20:13.058Z,72.84
2022-11-21T14:22:48.487Z,72.78
2022-11-21T14:25:25.660Z,72.64
2022-11-21T14:27:58.288Z,72.77
2022-11-21T14:30:36.332Z,72.60
2022-11-21T14:33:32.080Z,72.56
2022-11-21T14:36:06.870Z,72.71
2022-11-21T14:38:44.426Z,72.79
2022-11-21T14:41:28.016Z,72.50
2022-11-21T14:44:23.200Z,72.50
2022-11-21T14:47:09.680Z,72.65
2022-11-21T14:49:49.183Z,72.56
2022-11-21T14:52:24.410Z,72.47
2022-11-21T14:55:29.242Z,72.55
2022-11-21T14:57:52.200Z,72.48
2022-11-21T15:03:23.905Z,72.68
2022-11-21T15:06:06.219Z,72.74
2022-11-21T15:11:39.793Z,72.64
2022-11-21T15:14:21.420Z,72.74
2022-11-21T15:16:55.577Z,72.43
2022-11-21T15:19:29.513Z,72.76
2022-11-21T15:22:04.227Z,72.76
2022-11-21T15:24:42.748Z,72.80
2022-11-21T15:27:35.062Z,72.47
2022-11-21T15:30:23.075Z,72.70
2022-11-21T15:33:06.821Z,72.79
2022-11-21T15:36:12.431Z,72.84
2022-11-21T15:38:57.039Z,72.69
2022-11-21T15:41:31.184Z,72.60
2022-11-21T15:44:23.173Z,72.67
2022-11-21T15:46:58.392Z,72.69
2022-11-21T15:52:21.976Z,72.83
2022-11-21T15:54:53.697Z,72.57
2022-11-21T15:57:12.528Z,72.62
2022-11-21T15:57:25.510Z,72.51
2022-11-21T15:59:57.152Z,72.36
2022-11-21T16:02:29.007Z,72.27
2022-11-21T16:05:00.851Z,72.62
2022-11-21T16:07:32.546Z,72.70
2022-11-21T16:10:21.025Z,72.38
2022-11-21T16:12:54.439Z,72.52
2022-11-21T16:15:28.095Z,72.71
2022-11-21T16:17:59.845Z,72.73
2022-11-21T16:20:31.558Z,72.76
2022-11-21T16:23:03.221Z,72.88
2022-11-21T16:25:34.924Z,72.94
2022-11-21T16:28:07.332Z,72.57
2022-11-21T16:30:41.154Z,72.66
2022-11-21T16:33:12.708Z,72.66
2022-11-21T16:35:44.547Z,72.74
2022-11-21T16:38:24.845Z,72.92
2022-11-21T16:40:59.092Z,73.17
2022-11-21T16:43:31.639Z,73.13
2022-11-21T16:46:09.779Z,73.35
2022-11-21T16:48:41.571Z,73.48
2022-11-21T16:51:15.145Z,73.52
2022-11-21T16:53:48.549Z,73.61
2022-11-21T16:56:21.670Z,73.64
2022-11-21T16:58:53.339Z,73.55
2022-11-21T17:01:30.010Z,73.54
2022-11-21T17:04:01.911Z,73.51
2022-11-21T17:06:36.870Z,73.37
2022-11-21T17:09:08.708Z,73.46
2022-11-21T17:11:40.413Z,73.29
2022-11-21T17:14:13.634Z,73.11
2022-11-21T17:16:45.977Z,73.39
2022-11-21T17:19:17.791Z,73.67
2022-11-21T17:21:49.529Z,73.69
2022-11-21T17:24:21.188Z,73.74
2022-11-21T17:26:52.868Z,73.64
2022-11-21T17:29:24.683Z,73.60
2022-11-21T17:31:56.738Z,73.40
2022-11-21T17:34:33.104Z,73.59
2022-11-21T17:37:05.286Z,73.45
2022-11-21T17:39:37.530Z,73.09
2022-11-21T17:42:14.906Z,73.32
2022-11-21T17:44:47.071Z,73.32
2022-11-21T17:47:20.881Z,73.20
2022-11-21T17:49:56.770Z,73.12
2022-11-21T17:52:32.606Z,72.95
2022-11-21T17:55:06.045Z,72.76
2022-11-21T17:57:41.762Z,72.84
2022-11-21T18:00:16.331Z,72.78
2022-11-21T18:02:48.485Z,72.80
2022-11-21T18:05:21.123Z,72.68
2022-11-21T18:07:55.086Z,72.79
2022-11-21T18:10:42.395Z,72.74
2022-11-21T18:13:17.885Z,72.46
2022-11-21T18:15:49.779Z,72.56
2022-11-21T18:18:21.717Z,72.38
2022-11-21T18:20:53.734Z,72.10
2022-11-21T18:23:25.619Z,72.02
2022-11-21T18:26:01.625Z,72.17
2022-11-21T18:28:34.114Z,72.03
2022-11-21T18:31:10.972Z,72.28
2022-11-21T18:33:44.080Z,72.29
2022-11-21T18:36:16.338Z,72.35
2022-11-21T18:38:51.472Z,72.19
2022-11-21T18:41:29.819Z,72.22
2022-11-21T18:44:03.454Z,72.25
2022-11-21T18:46:37.517Z,72.06
2022-11-21T18:49:10.126Z,72.13
2022-11-21T18:51:41.822Z,71.92
2022-11-21T18:54:13.592Z,71.59
2022-11-21T18:56:45.325Z,71.43
2022-11-21T18:59:17.305Z,71.85
2022-11-21T19:01:52.024Z,72.05
2022-11-21T19:04:24.844Z,71.77
2022-11-21T19:06:56.557Z,71.80
2022-11-21T19:09:32.458Z,71.78
2022-11-21T19:12:05.012Z,71.32
2022-11-21T19:14:36.910Z,71.27
2022-11-21T19:17:08.520Z,71.61
2022-11-21T19:19:40.297Z,71.62
2022-11-21T19:22:11.896Z,71.80
2022-11-21T19:24:43.557Z,71.86
2022-11-21T19:27:15.213Z,72.07
2022-11-21T19:29:46.904Z,72.32
2022-11-21T19:32:18.575Z,72.31
2022-11-21T19:34:50.272Z,72.16
2022-11-21T19:37:22.197Z,72.28
2022-11-21T19:39:53.856Z,72.31
2022-11-21T19:42:25.576Z,72.51
2022-11-21T19:44:58.359Z,72.57
2022-11-21T19:47:29.935Z,72.41
2022-11-21T19:50:01.983Z,72.32
2022-11-21T19:52:33.948Z,72.52
2022-11-21T19:55:06.149Z,72.45
2022-11-21T19:57:39.878Z,72.36
2022-11-21T20:00:39.087Z,72.33
2022-11-21T20:03:11.350Z,72.50
2022-11-21T20:05:43.069Z,72.60
2022-11-21T20:08:18.018Z,72.69
2022-11-21T20:10:50.235Z,72.75
2022-11-21T20:13:21.890Z,72.95
2022-11-21T20:15:57.100Z,72.94
2022-11-21T20:18:29.794Z,72.91
2022-11-21T20:21:10.123Z,73.02
2022-11-21T20:23:42.120Z,73.10
2022-11-21T20:26:14.794Z,72.94
2022-11-21T20:28:48.750Z,72.44
2022-11-21T20:31:22.670Z,72.35
2022-11-21T20:33:56.971Z,72.34
2022-11-21T20:36:30.516Z,72.31
2022-11-21T20:39:04.097Z,72.44
2022-11-21T20:41:37.237Z,72.50
2022-11-21T20:47:04.998Z,72.79
2022-11-21T20:49:36.804Z,72.76
2022-11-21T20:55:02.089Z,72.21
2022-11-21T20:57:33.789Z,71.99
2022-11-21T21:00:11.691Z,72.20
2022-11-21T21:02:43.529Z,72.35
2022-11-21T21:05:15.540Z,72.56
2022-11-21T21:07:47.296Z,72.55
2022-11-21T21:10:57.952Z,72.79
2022-11-21T21:13:23.647Z,72.66
2022-11-21T21:15:55.331Z,72.74
2022-11-21T21:18:27.034Z,72.86
2022-11-21T21:21:16.460Z,73.05
2022-11-21T21:23:55.904Z,73.18
2022-11-21T21:26:30.060Z,73.25
2022-11-21T21:29:02.113Z,73.15
2022-11-21T21:31:33.795Z,73.30
2022-11-21T21:34:05.565Z,73.35
2022-11-21T21:36:42.475Z,73.39
2022-11-21T21:39:14.411Z,73.25
2022-11-21T21:41:48.276Z,73.15
2022-11-21T21:44:20.359Z,73.34
2022-11-21T21:46:52.016Z,73.32
2022-11-21T21:49:24.125Z,73.74
2022-11-21T21:51:55.822Z,74.14
2022-11-21T21:54:27.901Z,74.11
2022-11-21T21:57:05.712Z,74.42
2022-11-21T21:59:37.776Z,74.49
2022-11-21T22:02:11.798Z,74.59
2022-11-21T22:04:46.888Z,74.41
2022-11-21T22:07:20.922Z,74.38
2022-11-21T22:09:52.834Z,74.26
2022-11-21T22:12:24.900Z,74.43
2022-11-21T22:14:56.691Z,74.33
2022-11-21T22:17:28.285Z,74.31
2022-11-21T22:19:59.891Z,74.44
2022-11-21T22:22:31.816Z,74.29
2022-11-21T22:25:03.455Z,74.08
2022-11-21T22:27:35.402Z,73.61
2022-11-21T22:30:10.944Z,73.90
2022-11-21T22:32:42.596Z,73.76
2022-11-21T22:35:14.291Z,73.54
2022-11-21T22:37:45.934Z,73.26
2022-11-21T22:40:19.690Z,73.15
2022-11-21T22:42:52.585Z,72.94
2022-11-21T22:45:24.278Z,72.78
2022-11-21T22:47:55.888Z,72.74
2022-11-21T22:50:32.976Z,72.83
2022-11-21T22:53:09.749Z,72.51
2022-11-21T22:55:43.642Z,72.69
2022-11-21T22:58:15.185Z,72.73
2022-11-21T23:00:47.127Z,72.56
2022-11-21T23:03:18.744Z,72.63
2022-11-21T23:05:58.468Z,72.55
2022-11-21T23:08:33.358Z,72.58
2022-11-21T23:11:09.769Z,72.65
2022-11-21T23:13:43.837Z,72.51
2022-11-21T23:16:16.621Z,72.33
2022-11-21T23:18:49.226Z,72.43
2022-11-21T23:21:21.487Z,72.34
2022-11-21T23:23:53.119Z,72.36
2022-11-21T23:26:24.821Z,72.47
2022-11-21T23:28:56.452Z,72.47
2022-11-21T23:31:28.141Z,72.22
2022-11-21T23:33:59.747Z,72.11
2022-11-21T23:36:32.740Z,72.25
2022-11-21T23:39:04.545Z,72.15
2022-11-21T23:41:36.480Z,72.24
2022-11-21T23:44:08.189Z,72.36
2022-11-21T23:46:40.980Z,72.44
2022-11-21T23:49:12.554Z,72.47
2022-11-21T23:51:44.225Z,72.49
2022-11-21T23:54:15.802Z,72.40
2022-11-21T23:56:47.701Z,72.45
2022-11-21T23:59:19.331Z,72.40
